createdAt,value
2018-07-17T00:00:01.764Z,51.18
2018-07-17T00:02:30.375Z,52.48
2018-07-17T00:04:59.300Z,53.80
2018-07-17T00:07:27.398Z,52.81
2018-07-17T00:09:55.486Z,52.06
2018-07-17T00:12:23.606Z,52.65
2018-07-17T00:14:51.802Z,54.54
2018-07-17T00:17:20.809Z,52.83
2018-07-17T00:19:50.095Z,51.24
2018-07-17T00:22:19.152Z,52.64
2018-07-17T00:24:47.472Z,52.71
2018-07-17T00:27:15.652Z,52.83
2018-07-17T00:29:43.852Z,54.24
2018-07-17T00:32:12.129Z,52.92
2018-07-17T00:34:40.221Z,53.74
2018-07-17T00:37:08.301Z,52.75
2018-07-17T00:39:36.400Z,53.63
2018-07-17T00:42:04.570Z,53.14
2018-07-17T00:44:32.687Z,52.80
2018-07-17T00:47:01.173Z,52.39
2018-07-17T00:49:29.265Z,53.31
2018-07-17T00:51:57.388Z,51.81
2018-07-17T00:54:25.557Z,53.31
2018-07-17T00:56:53.694Z,52.63
2018-07-17T00:59:22.170Z,53.79
2018-07-17T01:01:55.590Z,52.90
2018-07-17T01:04:30.042Z,53.58
2018-07-17T01:07:03.664Z,53.84
2018-07-17T01:09:37.000Z,53.75
2018-07-17T01:12:10.511Z,53.21
2018-07-17T01:15:09.083Z,54.22
2018-07-17T01:17:37.323Z,53.48
2018-07-17T01:20:06.860Z,52.97
2018-07-17T01:22:35.008Z,53.61
2018-07-17T01:25:03.100Z,53.35
2018-07-17T01:27:31.331Z,54.31
2018-07-17T01:29:59.399Z,52.97
2018-07-17T01:32:27.778Z,53.48
2018-07-17T01:34:55.952Z,53.02
2018-07-17T01:37:24.205Z,52.85
2018-07-17T01:39:53.304Z,53.46
2018-07-17T01:42:21.479Z,52.75
2018-07-17T01:44:50.597Z,53.30
2018-07-17T01:47:18.712Z,54.01
2018-07-17T01:49:46.813Z,55.56
2018-07-17T01:52:15.764Z,54.32
2018-07-17T01:54:43.896Z,55.37
2018-07-17T01:57:11.966Z,54.47
2018-07-17T01:59:40.237Z,55.23
2018-07-17T02:02:08.502Z,55.35
2018-07-17T02:04:36.626Z,55.83
2018-07-17T02:07:05.162Z,54.93
2018-07-17T02:09:33.242Z,55.77
2018-07-17T02:12:02.190Z,55.80
2018-07-17T02:14:31.236Z,55.21
2018-07-17T02:17:00.051Z,56.58
2018-07-17T02:19:28.213Z,56.58
2018-07-17T02:21:57.306Z,56.22
2018-07-17T02:24:25.568Z,56.90
2018-07-17T02:26:53.753Z,56.48
2018-07-17T02:29:21.934Z,56.02
2018-07-17T02:31:50.081Z,55.22
2018-07-17T02:34:18.456Z,54.82
2018-07-17T02:36:46.587Z,55.36
2018-07-17T02:39:14.964Z,55.36
2018-07-17T02:41:43.043Z,56.21
2018-07-17T02:44:11.332Z,58.71
2018-07-17T02:46:39.536Z,61.01
2018-07-17T02:49:07.662Z,59.97
2018-07-17T02:51:35.731Z,60.56
2018-07-17T02:54:03.844Z,61.17
2018-07-17T02:56:32.519Z,62.03
2018-07-17T02:59:01.439Z,61.83
2018-07-17T03:01:29.483Z,61.90
2018-07-17T03:03:57.570Z,62.21
2018-07-17T03:06:25.871Z,61.81
2018-07-17T03:08:53.984Z,60.25
2018-07-17T03:11:22.090Z,62.00
2018-07-17T03:13:50.226Z,62.83
2018-07-17T03:16:18.514Z,63.14
2018-07-17T03:18:46.695Z,63.42
2018-07-17T03:21:14.778Z,62.00
2018-07-17T03:23:42.987Z,63.79
2018-07-17T03:26:11.171Z,64.14
2018-07-17T03:28:39.261Z,60.90
2018-07-17T03:31:07.537Z,61.93
2018-07-17T03:33:35.648Z,62.96
2018-07-17T03:36:03.950Z,63.17
2018-07-17T03:38:32.065Z,63.05
2018-07-17T03:41:00.190Z,62.66
2018-07-17T03:43:28.379Z,61.67
2018-07-17T03:45:56.652Z,61.89
2018-07-17T03:48:24.724Z,63.74
2018-07-17T03:50:52.811Z,62.79
2018-07-17T03:53:20.959Z,63.85
2018-07-17T03:55:49.073Z,63.37
2018-07-17T03:58:17.450Z,63.66
2018-07-17T04:00:45.599Z,63.87
2018-07-17T04:03:13.677Z,63.77
2018-07-17T04:05:41.856Z,63.31
2018-07-17T04:08:10.022Z,63.82
2018-07-17T04:10:38.135Z,63.15
2018-07-17T04:13:06.470Z,63.79
2018-07-17T04:15:34.749Z,63.22
2018-07-17T04:18:02.958Z,62.10
2018-07-17T04:20:31.442Z,62.70
2018-07-17T04:22:59.571Z,64.33
2018-07-17T04:25:27.741Z,63.59
2018-07-17T04:27:55.864Z,63.83
2018-07-17T04:30:23.964Z,64.51
2018-07-17T04:32:52.269Z,64.90
2018-07-17T04:35:20.378Z,65.07
2018-07-17T04:37:48.471Z,63.96
2018-07-17T04:40:16.591Z,64.94
2018-07-17T04:42:44.680Z,65.43
2018-07-17T04:45:12.935Z,66.09
2018-07-17T04:47:40.996Z,64.84
2018-07-17T04:50:09.161Z,64.61
2018-07-17T04:52:37.920Z,65.56
2018-07-17T04:55:06.021Z,65.91
2018-07-17T04:57:34.097Z,65.09
2018-07-17T05:00:02.241Z,66.04
2018-07-17T05:02:30.374Z,64.04
2018-07-17T05:04:58.486Z,64.92
2018-07-17T05:07:26.562Z,64.98
2018-07-17T05:09:54.690Z,64.66
2018-07-17T05:12:22.891Z,65.11
2018-07-17T05:14:51.059Z,64.67
2018-07-17T05:17:19.143Z,66.02
2018-07-17T05:19:47.283Z,65.01
2018-07-17T05:22:15.347Z,64.84
2018-07-17T05:24:43.450Z,64.87
2018-07-17T05:27:11.572Z,64.33
2018-07-17T05:29:39.819Z,63.82
2018-07-17T05:32:08.191Z,64.22
2018-07-17T05:34:36.309Z,64.19
2018-07-17T05:37:04.567Z,63.40
2018-07-17T05:39:32.747Z,63.82
2018-07-17T05:42:01.984Z,63.75
2018-07-17T05:44:30.506Z,63.43
2018-07-17T05:46:58.597Z,62.18
2018-07-17T05:49:26.722Z,61.75
2018-07-17T05:51:54.858Z,62.02
2018-07-17T05:54:22.916Z,62.02
2018-07-17T05:56:50.986Z,62.51
2018-07-17T05:59:19.062Z,60.74
2018-07-17T06:01:47.151Z,60.98
2018-07-17T06:04:15.220Z,62.16
2018-07-17T06:06:43.404Z,62.45
2018-07-17T06:09:11.932Z,61.35
2018-07-17T06:11:41.197Z,62.25
2018-07-17T06:14:09.294Z,62.22
2018-07-17T06:16:37.414Z,61.11
2018-07-17T06:19:05.877Z,60.79
2018-07-17T06:21:34.630Z,61.59
2018-07-17T06:24:02.705Z,60.49
2018-07-17T06:26:30.815Z,61.09
2018-07-17T06:28:58.901Z,60.17
2018-07-17T06:31:27.010Z,60.32
2018-07-17T06:33:55.198Z,62.03
2018-07-17T06:36:23.427Z,59.89
2018-07-17T06:38:51.560Z,60.34
2018-07-17T06:41:19.912Z,60.71
2018-07-17T06:43:48.078Z,60.66
2018-07-17T06:46:27.140Z,61.16
2018-07-17T06:48:55.443Z,59.98
2018-07-17T06:51:23.559Z,60.05
2018-07-17T06:53:51.634Z,60.09
2018-07-17T06:56:19.741Z,59.76
2018-07-17T06:58:47.812Z,59.94
2018-07-17T07:01:15.980Z,59.63
2018-07-17T07:03:44.068Z,59.84
2018-07-17T07:06:12.151Z,59.12
2018-07-17T07:08:40.232Z,59.18
2018-07-17T07:11:08.394Z,58.85
2018-07-17T07:13:36.454Z,57.88
2018-07-17T07:16:05.529Z,57.21
2018-07-17T07:18:33.612Z,57.63
2018-07-17T07:21:02.394Z,58.06
2018-07-17T07:23:30.485Z,58.14
2018-07-17T07:25:58.612Z,57.48
2018-07-17T07:28:26.702Z,57.69
2018-07-17T07:30:54.790Z,56.67
2018-07-17T07:33:22.940Z,57.32
2018-07-17T07:35:51.239Z,55.58
2018-07-17T07:38:19.294Z,56.38
2018-07-17T07:40:47.421Z,56.28
2018-07-17T07:43:15.499Z,55.52
2018-07-17T07:45:43.595Z,56.55
2018-07-17T07:48:11.666Z,56.78
2018-07-17T07:50:39.779Z,55.61
2018-07-17T07:53:07.839Z,56.52
2018-07-17T07:55:35.992Z,57.02
2018-07-17T07:58:04.043Z,56.21
2018-07-17T08:00:33.176Z,56.06
2018-07-17T08:03:01.246Z,56.84
2018-07-17T08:05:29.324Z,57.05
2018-07-17T08:07:57.551Z,55.91
2018-07-17T08:10:25.685Z,54.71
2018-07-17T08:12:54.467Z,54.12
2018-07-17T08:15:22.687Z,54.39
2018-07-17T08:17:50.824Z,53.71
2018-07-17T08:20:19.027Z,53.28
2018-07-17T08:22:47.100Z,52.91
2018-07-17T08:25:15.801Z,54.68
2018-07-17T08:27:43.900Z,53.33
2018-07-17T08:30:12.661Z,52.71
2018-07-17T08:32:40.811Z,52.84
2018-07-17T08:35:09.200Z,52.69
2018-07-17T08:37:37.750Z,52.01
2018-07-17T08:40:06.054Z,51.29
2018-07-17T08:42:34.145Z,50.46
2018-07-17T08:45:06.828Z,51.08
2018-07-17T08:47:35.183Z,50.71
2018-07-17T08:50:03.343Z,50.65
2018-07-17T08:52:31.477Z,50.71
2018-07-17T08:54:59.573Z,50.11
2018-07-17T08:57:27.966Z,49.84
2018-07-17T08:59:56.041Z,49.15
2018-07-17T09:02:24.174Z,50.00
2018-07-17T09:04:52.322Z,49.94
2018-07-17T09:07:20.663Z,49.81
2018-07-17T09:09:48.731Z,48.97
2018-07-17T09:12:16.799Z,48.72
2018-07-17T09:14:44.891Z,49.33
2018-07-17T09:17:13.060Z,48.60
2018-07-17T09:19:41.384Z,47.96
2018-07-17T09:22:09.467Z,47.90
2018-07-17T09:24:37.527Z,47.10
2018-07-17T09:27:05.789Z,45.42
2018-07-17T09:29:34.274Z,47.16
2018-07-17T09:32:03.062Z,46.40
2018-07-17T09:34:31.181Z,46.64
2018-07-17T09:36:59.271Z,45.48
2018-07-17T09:39:27.351Z,46.72
2018-07-17T09:41:55.464Z,46.54
2018-07-17T09:44:23.568Z,45.94
2018-07-17T09:46:51.683Z,44.95
2018-07-17T09:49:19.769Z,45.28
2018-07-17T09:51:47.874Z,43.42
2018-07-17T09:54:16.013Z,44.29
2018-07-17T09:56:44.068Z,45.78
2018-07-17T09:59:12.169Z,46.48
2018-07-17T10:01:45.535Z,44.00
2018-07-17T10:04:13.627Z,45.59
2018-07-17T10:06:41.754Z,44.98
2018-07-17T10:09:09.830Z,43.87
2018-07-17T10:11:38.160Z,42.98
2018-07-17T10:14:06.310Z,44.37
2018-07-17T10:16:34.448Z,44.35
2018-07-17T10:19:03.107Z,43.90
2018-07-17T10:21:31.202Z,44.87
2018-07-17T10:23:59.292Z,42.84
2018-07-17T10:26:27.499Z,40.14
2018-07-17T10:28:55.463Z,38.97
2018-07-17T10:31:23.640Z,40.46
2018-07-17T10:33:51.877Z,39.08
2018-07-17T10:36:20.055Z,40.89
2018-07-17T10:38:48.151Z,40.03
2018-07-17T10:41:16.222Z,37.20
2018-07-17T10:43:44.371Z,38.33
2018-07-17T10:46:12.580Z,37.80
2018-07-17T10:48:40.712Z,38.67
2018-07-17T10:51:09.048Z,36.39
2018-07-17T10:53:37.246Z,37.37
2018-07-17T10:56:05.354Z,36.52
2018-07-17T10:58:33.435Z,35.29
2018-07-17T11:01:02.371Z,32.20
2018-07-17T11:03:30.566Z,32.85
2018-07-17T11:05:58.732Z,33.42
2018-07-17T11:08:27.013Z,33.27
2018-07-17T11:10:55.128Z,31.68
2018-07-17T11:13:23.302Z,32.92
2018-07-17T11:15:52.312Z,31.12
2018-07-17T11:18:20.504Z,32.37
2018-07-17T11:20:50.978Z,31.42
2018-07-17T11:23:19.053Z,32.06
2018-07-17T11:25:47.118Z,29.83
2018-07-17T11:28:16.306Z,28.46
2018-07-17T11:30:46.443Z,26.75
2018-07-17T11:33:14.554Z,27.11
2018-07-17T11:35:43.399Z,25.89
2018-07-17T11:38:11.560Z,24.90
2018-07-17T11:40:39.622Z,26.98
2018-07-17T11:43:07.800Z,25.60
2018-07-17T11:45:36.103Z,24.56
2018-07-17T11:48:04.237Z,24.22
2018-07-17T11:50:32.346Z,25.49
2018-07-17T11:53:00.450Z,23.97
2018-07-17T11:55:28.722Z,25.18
2018-07-17T11:57:57.077Z,22.92
2018-07-17T12:00:25.659Z,23.87
2018-07-17T12:02:53.809Z,22.65
2018-07-17T12:05:21.977Z,23.18
2018-07-17T12:07:50.225Z,20.10
2018-07-17T12:10:18.345Z,20.42
2018-07-17T12:12:46.719Z,22.66
2018-07-17T12:15:14.784Z,23.74
2018-07-17T12:17:42.981Z,23.06
2018-07-17T12:20:11.409Z,24.86
2018-07-17T12:22:39.542Z,22.33
2018-07-17T12:25:07.868Z,21.56
2018-07-17T12:27:36.109Z,21.70
2018-07-17T12:30:05.298Z,21.79
2018-07-17T12:32:33.994Z,22.39
2018-07-17T12:35:02.234Z,22.89
2018-07-17T12:37:30.350Z,24.01
2018-07-17T12:39:58.430Z,23.51
2018-07-17T12:42:26.586Z,22.65
2018-07-17T12:44:54.766Z,21.57
2018-07-17T12:47:22.893Z,23.30
2018-07-17T12:49:51.127Z,23.69
2018-07-17T12:52:19.297Z,24.98
2018-07-17T12:54:47.637Z,25.67
2018-07-17T12:57:15.796Z,25.77
2018-07-17T12:59:44.108Z,25.40
2018-07-17T13:02:12.247Z,25.72
2018-07-17T13:04:40.352Z,27.25
2018-07-17T13:07:08.524Z,26.78
2018-07-17T13:09:36.698Z,26.69
2018-07-17T13:12:04.834Z,26.57
2018-07-17T13:14:34.207Z,28.15
2018-07-17T13:17:02.290Z,27.39
2018-07-17T13:19:31.046Z,28.24
2018-07-17T13:21:59.919Z,28.38
2018-07-17T13:24:28.014Z,27.84
2018-07-17T13:26:56.287Z,28.19
2018-07-17T13:29:24.674Z,28.19
2018-07-17T13:31:52.775Z,28.17
2018-07-17T13:37:11.510Z,27.04
2018-07-17T13:39:39.674Z,25.44
2018-07-17T13:42:07.783Z,27.06
2018-07-17T13:44:36.350Z,27.14
2018-07-17T13:47:04.516Z,26.16
2018-07-17T13:49:32.732Z,26.84
2018-07-17T13:52:00.928Z,26.80
2018-07-17T13:54:29.124Z,26.79
2018-07-17T13:56:57.199Z,27.00
2018-07-17T13:59:25.355Z,25.87
2018-07-17T14:01:53.550Z,24.08
2018-07-17T14:04:21.714Z,23.50
2018-07-17T14:06:49.952Z,20.92
2018-07-17T14:09:18.163Z,22.05
2018-07-17T14:11:46.477Z,21.17
2018-07-17T14:14:14.638Z,20.97
2018-07-17T14:16:42.867Z,20.99
2018-07-17T14:19:11.089Z,21.59
2018-07-17T14:21:39.354Z,20.91
2018-07-17T14:24:07.555Z,20.46
2018-07-17T14:26:39.471Z,18.94
2018-07-17T14:29:07.608Z,19.63
2018-07-17T14:31:36.843Z,17.85
2018-07-17T14:34:05.685Z,19.23
2018-07-17T14:36:35.076Z,18.91
2018-07-17T14:39:03.433Z,19.71
2018-07-17T14:41:32.208Z,22.71
2018-07-17T14:44:01.608Z,20.77
2018-07-17T14:46:30.200Z,21.16
2018-07-17T14:48:58.875Z,20.03
2018-07-17T14:51:27.087Z,18.94
2018-07-17T14:53:57.261Z,18.33
2018-07-17T14:56:25.573Z,19.46
2018-07-17T14:58:53.796Z,17.87
2018-07-17T15:01:22.143Z,19.60
2018-07-17T15:03:51.247Z,18.89
2018-07-17T15:06:19.429Z,18.59
2018-07-17T15:08:47.907Z,17.59
2018-07-17T15:11:16.297Z,18.25
2018-07-17T15:13:44.745Z,17.99
2018-07-17T15:16:13.205Z,20.33
2018-07-17T15:18:41.410Z,21.03
2018-07-17T15:21:09.702Z,21.25
2018-07-17T15:23:38.992Z,22.66
2018-07-17T15:26:09.700Z,23.03
2018-07-17T15:28:38.071Z,23.80
2018-07-17T15:31:06.188Z,22.98
2018-07-17T15:33:34.347Z,23.78
2018-07-17T15:36:02.638Z,24.57
2018-07-17T15:38:30.914Z,24.67
2018-07-17T15:40:59.016Z,24.86
2018-07-17T15:43:27.250Z,25.48
2018-07-17T15:45:55.384Z,25.28
2018-07-17T15:48:23.516Z,23.02
2018-07-17T15:50:51.845Z,22.18
2018-07-17T15:53:20.072Z,21.85
2018-07-17T15:55:49.499Z,22.91
2018-07-17T15:58:17.599Z,23.52
2018-07-17T16:00:45.723Z,22.75
2018-07-17T16:03:13.933Z,23.23
2018-07-17T16:05:42.093Z,22.94
2018-07-17T16:08:10.272Z,22.26
2018-07-17T16:10:38.449Z,23.09
2018-07-17T16:13:06.648Z,22.90
2018-07-17T16:15:35.690Z,24.49
2018-07-17T16:21:40.877Z,26.32
2018-07-17T16:24:08.998Z,26.75
2018-07-17T16:26:43.042Z,27.26
2018-07-17T16:29:11.724Z,27.26
2018-07-17T16:31:39.772Z,28.42
2018-07-17T16:34:07.851Z,27.97
2018-07-17T16:36:35.970Z,28.32
2018-07-17T16:39:06.962Z,28.32
2018-07-17T16:41:35.171Z,28.64
2018-07-17T16:44:03.278Z,28.42
2018-07-17T16:46:31.383Z,28.82
2018-07-17T16:48:59.485Z,28.53
2018-07-17T16:51:27.677Z,28.69
2018-07-17T16:53:56.342Z,27.79
2018-07-17T16:56:24.434Z,27.93
2018-07-17T16:58:52.574Z,29.46
2018-07-17T17:01:20.681Z,28.58
2018-07-17T17:03:48.767Z,28.16
2018-07-17T17:06:17.060Z,27.67
2018-07-17T17:08:45.415Z,28.46
2018-07-17T17:11:13.547Z,27.96
2018-07-17T17:13:41.653Z,27.34
2018-07-17T17:16:09.763Z,27.75
2018-07-17T17:18:38.052Z,28.38
2018-07-17T17:21:06.212Z,28.08
2018-07-17T17:23:36.716Z,28.05
2018-07-17T17:26:06.175Z,27.67
2018-07-17T17:28:35.703Z,27.25
2018-07-17T17:31:03.880Z,26.91
2018-07-17T17:33:32.076Z,26.80
2018-07-17T17:36:00.240Z,27.36
2018-07-17T17:38:28.342Z,27.38
2018-07-17T17:40:56.501Z,27.63
2018-07-17T17:43:24.589Z,28.29
2018-07-17T17:45:52.888Z,28.09
2018-07-17T17:48:21.044Z,28.07
2018-07-17T17:50:49.240Z,27.19
2018-07-17T17:53:17.362Z,28.16
2018-07-17T17:55:45.487Z,27.36
2018-07-17T17:58:13.719Z,27.12
2018-07-17T18:00:41.957Z,27.35
2018-07-17T18:03:10.155Z,28.14
2018-07-17T18:05:39.469Z,27.87
2018-07-17T18:08:07.722Z,27.85
2018-07-17T18:10:35.834Z,27.87
2018-07-17T18:13:03.950Z,28.03
2018-07-17T18:15:32.156Z,28.42
2018-07-17T18:18:00.236Z,28.76
2018-07-17T18:20:28.517Z,27.75
2018-07-17T18:22:56.964Z,28.07
2018-07-17T18:25:26.220Z,27.86
2018-07-17T18:27:54.646Z,27.81
2018-07-17T18:30:22.859Z,28.31
2018-07-17T18:32:50.934Z,28.86
2018-07-17T18:35:19.273Z,28.69
2018-07-17T18:37:47.771Z,29.40
2018-07-17T18:40:15.970Z,29.29
2018-07-17T18:42:44.236Z,29.53
2018-07-17T18:45:21.781Z,29.42
2018-07-17T18:48:10.982Z,29.17
2018-07-17T18:50:39.671Z,29.15
2018-07-17T18:53:07.896Z,29.84
2018-07-17T18:55:36.774Z,30.19
2018-07-17T18:58:05.646Z,30.80
2018-07-17T19:00:33.730Z,29.94
2018-07-17T19:03:02.043Z,30.60
2018-07-17T19:05:30.154Z,30.24
2018-07-17T19:07:58.495Z,29.84
2018-07-17T19:10:26.633Z,29.98
2018-07-17T19:12:54.771Z,30.25
2018-07-17T19:15:22.927Z,30.87
2018-07-17T19:17:51.037Z,30.61
2018-07-17T19:20:19.565Z,31.63
2018-07-17T19:22:48.009Z,31.72
2018-07-17T19:25:16.173Z,31.46
2018-07-17T19:27:44.344Z,31.19
2018-07-17T19:30:13.595Z,30.84
2018-07-17T19:32:41.657Z,32.11
2018-07-17T19:35:09.742Z,31.91
2018-07-17T19:37:37.915Z,32.45
2018-07-17T19:40:06.824Z,32.76
2018-07-17T19:42:35.695Z,31.91
2018-07-17T19:45:03.839Z,32.31
2018-07-17T19:47:32.046Z,32.03
2018-07-17T19:50:00.197Z,31.86
2018-07-17T19:52:29.372Z,32.46
2018-07-17T19:54:57.474Z,32.99
2018-07-17T19:57:26.604Z,32.54
2018-07-17T19:59:54.767Z,33.16
2018-07-17T20:02:23.616Z,33.21
2018-07-17T20:04:51.978Z,33.88
2018-07-17T20:07:20.079Z,33.52
2018-07-17T20:09:48.252Z,33.73
2018-07-17T20:12:16.559Z,34.21
2018-07-17T20:14:44.659Z,33.86
2018-07-17T20:17:12.980Z,34.09
2018-07-17T20:19:41.299Z,34.92
2018-07-17T20:22:09.467Z,35.79
2018-07-17T20:24:37.576Z,35.76
2018-07-17T20:27:06.183Z,35.76
2018-07-17T20:29:34.341Z,36.55
2018-07-17T20:32:02.475Z,36.77
2018-07-17T20:34:30.762Z,36.75
2018-07-17T20:36:59.392Z,37.67
2018-07-17T20:39:27.608Z,37.68
2018-07-17T20:41:55.748Z,37.80
2018-07-17T20:44:23.875Z,38.28
2018-07-17T20:46:52.136Z,37.81
2018-07-17T20:49:20.399Z,39.04
2018-07-17T20:51:48.550Z,40.74
2018-07-17T20:54:17.084Z,40.50
2018-07-17T20:56:45.324Z,40.78
2018-07-17T20:59:13.422Z,40.35
2018-07-17T21:01:41.830Z,39.05
2018-07-17T21:04:10.171Z,40.36
2018-07-17T21:06:38.302Z,40.19
2018-07-17T21:09:09.329Z,40.04
2018-07-17T21:11:37.482Z,40.49
2018-07-17T21:14:05.678Z,40.62
2018-07-17T21:16:33.768Z,40.79
2018-07-17T21:19:01.940Z,39.99
2018-07-17T21:21:30.023Z,40.05
2018-07-17T21:23:58.214Z,40.93
2018-07-17T21:26:26.478Z,42.01
2018-07-17T21:28:54.594Z,41.05
2018-07-17T21:31:22.736Z,41.57
2018-07-17T21:33:51.124Z,42.06
2018-07-17T21:36:19.323Z,41.39
2018-07-17T21:38:47.391Z,41.58
2018-07-17T21:41:15.470Z,42.21
2018-07-17T21:43:43.557Z,41.72
2018-07-17T21:46:11.694Z,41.53
2018-07-17T21:48:39.791Z,41.95
2018-07-17T21:51:07.927Z,41.35
2018-07-17T21:53:36.341Z,40.28
2018-07-17T21:56:04.938Z,40.74
2018-07-17T21:58:33.118Z,41.11
2018-07-17T22:01:02.494Z,41.35
2018-07-17T22:03:31.686Z,42.54
2018-07-17T22:05:59.923Z,41.95
2018-07-17T22:08:28.108Z,42.67
2018-07-17T22:10:56.232Z,43.95
2018-07-17T22:13:24.377Z,43.44
2018-07-17T22:15:52.519Z,42.39
2018-07-17T22:18:20.768Z,43.20
2018-07-17T22:20:48.891Z,44.06
2018-07-17T22:23:17.333Z,44.16
2018-07-17T22:25:45.443Z,44.45
2018-07-17T22:28:13.587Z,44.00
2018-07-17T22:30:41.886Z,45.50
2018-07-17T22:33:10.284Z,44.94
2018-07-17T22:35:38.487Z,45.72
2018-07-17T22:38:07.126Z,44.46
2018-07-17T22:40:35.209Z,45.46
2018-07-17T22:43:04.003Z,45.45
2018-07-17T22:45:32.100Z,46.20
2018-07-17T22:48:00.211Z,45.86
2018-07-17T22:50:28.454Z,45.80
2018-07-17T22:52:56.855Z,46.04
2018-07-17T22:55:25.483Z,46.23
2018-07-17T22:57:53.631Z,45.91
2018-07-17T23:00:21.734Z,46.58
2018-07-17T23:02:49.878Z,46.32
2018-07-17T23:05:18.920Z,45.96
2018-07-17T23:07:47.072Z,46.54
2018-07-17T23:10:15.313Z,47.03
2018-07-17T23:12:43.446Z,45.90
2018-07-17T23:15:11.624Z,46.73
2018-07-17T23:17:40.410Z,46.20
2018-07-17T23:20:09.511Z,46.26
2018-07-17T23:22:48.609Z,46.40
2018-07-17T23:25:17.143Z,45.84
2018-07-17T23:27:45.623Z,45.99
2018-07-17T23:30:13.924Z,47.06
2018-07-17T23:32:42.191Z,47.35
2018-07-17T23:35:11.196Z,48.33
2018-07-17T23:37:39.351Z,48.55
2018-07-17T23:40:07.452Z,47.45
2018-07-17T23:42:35.691Z,47.42
2018-07-17T23:45:03.775Z,47.19
2018-07-17T23:47:32.198Z,48.13
2018-07-17T23:50:00.275Z,46.26
2018-07-17T23:52:28.435Z,47.20
2018-07-17T23:54:56.491Z,47.07
2018-07-17T23:57:24.769Z,46.79
2018-07-17T23:59:52.881Z,46.52
